createdAt,value
2023-04-02T00:02:23.008Z,45.36
2023-04-02T00:07:31.788Z,45.83
2023-04-02T00:12:34.438Z,44.65
2023-04-02T00:17:36.527Z,42.14
2023-04-02T00:22:44.499Z,42.54
2023-04-02T00:27:46.655Z,42.86
2023-04-02T00:32:51.952Z,42.73
2023-04-02T00:37:56.322Z,42.78
2023-04-02T00:43:04.685Z,42.70
2023-04-02T00:48:28.706Z,42.67
2023-04-02T00:53:31.962Z,42.95
2023-04-02T00:58:37.528Z,43.97
2023-04-02T01:03:41.329Z,44.51
2023-04-02T01:08:56.009Z,44.76
2023-04-02T01:14:25.500Z,43.04
2023-04-02T01:19:34.063Z,41.90
2023-04-02T01:24:38.970Z,40.77
2023-04-02T01:29:46.402Z,40.53
2023-04-02T01:34:50.210Z,38.58
2023-04-02T01:40:18.059Z,40.37
2023-04-02T01:45:22.730Z,41.27
2023-04-02T01:50:37.463Z,42.40
2023-04-02T01:55:45.177Z,43.72
2023-04-02T02:01:14.403Z,45.66
2023-04-02T02:06:19.171Z,46.04
2023-04-02T02:11:24.494Z,46.99
2023-04-02T02:16:28.484Z,47.59
2023-04-02T02:21:43.971Z,47.55
2023-04-02T02:26:48.758Z,47.92
2023-04-02T02:31:54.101Z,48.17
2023-04-02T02:37:09.344Z,48.50
2023-04-02T02:42:12.357Z,49.09
2023-04-02T02:47:16.278Z,49.32
2023-04-02T02:52:32.036Z,49.20
2023-04-02T02:58:01.212Z,49.51
2023-04-02T03:03:18.378Z,49.89
2023-04-02T03:08:42.298Z,49.70
2023-04-02T03:13:50.004Z,49.98
2023-04-02T03:18:59.472Z,50.46
2023-04-02T03:24:09.019Z,50.74
2023-04-02T03:29:18.215Z,50.83
2023-04-02T03:34:20.261Z,50.90
2023-04-02T03:39:33.804Z,51.58
2023-04-02T03:44:39.845Z,51.46
2023-04-02T03:49:50.262Z,51.70
2023-04-02T03:54:59.630Z,51.90
2023-04-02T04:00:27.707Z,52.17
2023-04-02T04:05:37.158Z,52.79
2023-04-02T04:10:41.035Z,52.93
2023-04-02T04:15:46.233Z,53.08
2023-04-02T04:20:56.794Z,53.32
2023-04-02T04:26:10.049Z,54.01
2023-04-02T04:31:25.976Z,53.62
2023-04-02T04:36:41.690Z,54.06
2023-04-02T04:41:48.324Z,53.88
2023-04-02T04:46:54.165Z,54.48
2023-04-02T04:52:18.155Z,53.91
2023-04-02T04:57:38.690Z,54.15
2023-04-02T05:03:03.564Z,54.68
2023-04-02T05:08:12.499Z,54.78
2023-04-02T05:13:28.140Z,54.69
2023-04-02T05:18:48.256Z,54.82
2023-04-02T05:24:19.448Z,55.56
2023-04-02T05:29:26.038Z,55.25
2023-04-02T05:34:32.995Z,54.94
2023-04-02T05:39:35.838Z,55.17
2023-04-02T05:44:41.905Z,55.64
2023-04-02T05:50:10.285Z,55.20
2023-04-02T05:55:46.516Z,55.31
2023-04-02T06:01:03.027Z,56.00
2023-04-02T06:06:16.163Z,56.36
2023-04-02T06:11:26.444Z,56.50
2023-04-02T06:16:31.080Z,57.02
2023-04-02T06:21:33.773Z,56.65
2023-04-02T06:26:41.137Z,56.48
2023-04-02T06:32:12.867Z,56.65
2023-04-02T06:37:32.704Z,56.84
2023-04-02T06:42:56.752Z,56.68
2023-04-02T06:48:30.244Z,57.19
2023-04-02T06:53:49.827Z,57.26
2023-04-02T06:58:53.983Z,58.52
2023-04-02T07:03:57.880Z,58.62
2023-04-02T07:09:09.265Z,58.30
2023-04-02T07:14:15.288Z,58.47
2023-04-02T07:19:20.262Z,57.67
2023-04-02T07:24:27.530Z,56.65
2023-04-02T07:29:29.568Z,56.97
2023-04-02T07:34:31.562Z,57.46
2023-04-02T07:39:36.556Z,57.19
2023-04-02T07:44:40.553Z,56.63
2023-04-02T07:49:42.858Z,56.58
2023-04-02T07:54:45.062Z,56.07
2023-04-02T07:59:47.659Z,56.23
2023-04-02T08:04:51.658Z,54.36
2023-04-02T08:09:53.919Z,53.82
2023-04-02T08:14:56.634Z,49.79
2023-04-02T08:20:02.891Z,50.39
2023-04-02T08:25:05.537Z,46.47
2023-04-02T08:30:10.674Z,46.76
2023-04-02T08:35:16.459Z,44.74
2023-04-02T08:40:30.386Z,44.88
2023-04-02T08:46:09.060Z,44.89
2023-04-02T08:51:24.039Z,44.44
2023-04-02T08:56:50.296Z,41.51
2023-04-02T09:02:04.178Z,38.73
2023-04-02T09:07:09.622Z,36.22
2023-04-02T09:12:25.267Z,33.47
2023-04-02T09:17:29.994Z,32.10
2023-04-02T09:22:35.834Z,30.47
2023-04-02T09:27:38.376Z,29.25
2023-04-02T09:32:53.747Z,28.60
2023-04-02T09:38:33.197Z,28.04
2023-04-02T09:43:39.450Z,27.44
2023-04-02T09:48:51.400Z,26.64
2023-04-02T09:54:12.510Z,26.71
2023-04-02T09:59:23.135Z,25.49
2023-04-02T10:04:44.823Z,25.21
2023-04-02T10:09:58.754Z,25.26
2023-04-02T10:15:01.751Z,24.25
2023-04-02T10:20:17.394Z,24.33
2023-04-02T10:25:22.264Z,24.02
2023-04-02T10:30:42.359Z,23.86
2023-04-02T10:36:08.486Z,23.91
2023-04-02T10:41:17.285Z,23.46
2023-04-02T10:46:25.304Z,22.87
2023-04-02T10:51:52.356Z,22.54
2023-04-02T10:56:55.328Z,23.07
2023-04-02T11:02:02.542Z,23.58
2023-04-02T11:07:14.645Z,23.23
2023-04-02T11:12:28.101Z,22.71
2023-04-02T11:17:35.440Z,22.40
2023-04-02T11:22:39.072Z,22.79
2023-04-02T11:27:42.978Z,25.25
2023-04-02T11:32:50.469Z,25.88
2023-04-02T11:37:56.617Z,25.69
2023-04-02T11:43:34.709Z,25.21
2023-04-02T11:48:37.380Z,25.40
2023-04-02T11:53:46.328Z,25.66
2023-04-02T11:59:06.909Z,25.20
2023-04-02T12:04:18.087Z,24.45
2023-04-02T12:09:25.577Z,24.72
2023-04-02T12:14:48.026Z,27.79
2023-04-02T12:19:54.363Z,26.92
2023-04-02T12:25:01.293Z,27.35
2023-04-02T12:30:17.717Z,28.00
2023-04-02T12:35:36.815Z,31.20
2023-04-02T12:40:58.402Z,29.71
2023-04-02T12:46:03.677Z,27.95
2023-04-02T12:51:06.263Z,26.61
2023-04-02T12:56:21.855Z,27.28
2023-04-02T13:01:28.426Z,26.53
2023-04-02T13:06:32.264Z,30.73
2023-04-02T13:11:40.656Z,26.53
2023-04-02T13:16:43.331Z,26.93
2023-04-02T13:21:46.246Z,24.66
2023-04-02T13:26:49.916Z,26.62
2023-04-02T13:31:54.215Z,27.54
2023-04-02T13:36:57.932Z,27.69
2023-04-02T13:42:02.818Z,26.97
2023-04-02T13:47:05.219Z,26.28
2023-04-02T13:52:07.860Z,27.41
2023-04-02T13:57:09.937Z,27.14
2023-04-02T14:02:23.136Z,28.38
2023-04-02T14:07:39.757Z,29.78
2023-04-02T14:12:57.536Z,27.73
2023-04-02T14:18:02.124Z,28.75
2023-04-02T14:23:13.781Z,30.52
2023-04-02T14:28:59.235Z,27.74
2023-04-02T14:34:07.919Z,27.56
2023-04-02T14:39:15.544Z,25.84
2023-04-02T14:44:19.584Z,25.79
2023-04-02T14:49:29.092Z,25.84
2023-04-02T14:54:40.296Z,26.19
2023-04-02T14:59:53.787Z,24.73
2023-04-02T15:05:06.925Z,25.70
2023-04-02T15:10:23.382Z,23.78
2023-04-02T15:15:51.997Z,24.05
2023-04-02T15:20:54.256Z,22.71
2023-04-02T15:26:02.899Z,24.95
2023-04-02T15:31:10.378Z,24.75
2023-04-02T15:36:33.496Z,25.62
2023-04-02T15:41:42.812Z,25.65
2023-04-02T15:47:16.655Z,25.61
2023-04-02T15:53:00.000Z,25.32
2023-04-02T15:58:36.262Z,25.21
2023-04-02T16:03:59.337Z,25.84
2023-04-02T16:09:10.371Z,26.20
2023-04-02T16:14:28.483Z,26.68
2023-04-02T16:19:47.094Z,27.05
2023-04-02T16:24:56.743Z,25.63
2023-04-02T16:30:17.884Z,26.54
2023-04-02T16:35:43.944Z,26.34
2023-04-02T17:55:50.775Z,28.65
2023-04-02T18:01:45.792Z,28.57
2023-04-02T18:07:10.913Z,27.84
2023-04-02T18:12:26.408Z,27.54
2023-04-02T18:18:16.501Z,28.31
2023-04-02T18:23:34.339Z,28.51
2023-04-02T18:29:01.293Z,28.87
2023-04-02T18:34:29.589Z,29.46
2023-04-02T18:40:08.229Z,30.31
2023-04-02T18:45:48.771Z,30.61
2023-04-02T18:50:52.068Z,30.60
2023-04-02T18:56:02.984Z,30.88
2023-04-02T19:01:13.471Z,31.07
2023-04-02T19:06:25.596Z,30.46
2023-04-02T19:11:35.025Z,31.06
2023-04-02T19:16:56.593Z,30.91
2023-04-02T19:22:30.777Z,30.82
2023-04-02T19:27:53.470Z,30.74
2023-04-02T19:33:24.035Z,30.90
2023-04-02T19:38:48.688Z,31.03
2023-04-02T19:43:51.025Z,30.85
2023-04-02T19:48:53.027Z,31.55
2023-04-02T19:53:55.092Z,31.84
2023-04-02T19:58:58.290Z,31.88
2023-04-02T20:04:03.953Z,32.05
2023-04-02T20:09:07.646Z,32.22
2023-04-02T20:14:09.728Z,32.30
2023-04-02T20:19:12.090Z,32.27
2023-04-02T20:24:14.647Z,32.93
2023-04-02T20:29:17.249Z,32.55
2023-04-02T20:34:19.313Z,32.92
2023-04-02T20:39:21.777Z,33.21
2023-04-02T20:44:23.862Z,32.90
2023-04-02T20:49:26.805Z,31.90
2023-04-02T20:54:30.224Z,32.96
2023-04-02T20:59:32.293Z,32.87
2023-04-02T21:04:36.506Z,32.97
2023-04-02T21:09:39.306Z,33.52
2023-04-02T21:14:41.514Z,33.89
2023-04-02T21:19:43.815Z,34.66
2023-04-02T21:24:46.043Z,35.26
2023-04-02T21:29:48.223Z,36.25
2023-04-02T21:34:50.745Z,36.43
2023-04-02T21:39:53.313Z,36.39
2023-04-02T21:44:56.110Z,36.08
2023-04-02T21:49:58.209Z,36.28
2023-04-02T21:55:00.077Z,36.89
2023-04-02T22:00:02.112Z,36.71
2023-04-02T22:05:07.112Z,36.97
2023-04-02T22:10:09.238Z,36.57
2023-04-02T22:15:12.142Z,36.26
2023-04-02T22:20:14.194Z,36.65
2023-04-02T22:25:16.485Z,36.71
2023-04-02T22:30:18.538Z,36.50
2023-04-02T22:35:20.608Z,36.49
2023-04-02T22:40:23.170Z,37.02
2023-04-02T22:45:25.479Z,37.35
2023-04-02T22:50:27.850Z,37.77
2023-04-02T22:55:30.691Z,38.46
2023-04-02T23:00:32.724Z,38.97
2023-04-02T23:05:37.570Z,39.29
2023-04-02T23:10:39.758Z,39.21
2023-04-02T23:15:44.729Z,38.28
2023-04-02T23:20:50.196Z,38.21
2023-04-02T23:26:03.640Z,38.06
2023-04-02T23:31:07.782Z,38.43
2023-04-02T23:36:12.882Z,38.52
2023-04-02T23:41:16.097Z,38.49
2023-04-02T23:46:18.679Z,39.05
2023-04-02T23:51:21.426Z,39.42
2023-04-02T23:56:23.751Z,39.93
